createdAt,value
2023-05-14T00:02:16.648Z,56.34
2023-05-14T00:04:43.847Z,56.37
2023-05-14T00:07:11.394Z,56.34
2023-05-14T00:09:38.595Z,56.40
2023-05-14T00:12:06.445Z,56.36
2023-05-14T00:14:33.660Z,56.45
2023-05-14T00:17:01.120Z,56.62
2023-05-14T00:19:28.207Z,56.80
2023-05-14T00:21:55.528Z,56.77
2023-05-14T00:24:23.274Z,56.92
2023-05-14T00:26:50.396Z,56.76
2023-05-14T00:29:17.939Z,56.96
2023-05-14T00:31:45.165Z,56.92
2023-05-14T00:34:12.219Z,57.06
2023-05-14T00:36:39.452Z,56.89
2023-05-14T00:39:06.725Z,56.77
2023-05-14T00:41:33.805Z,56.89
2023-05-14T00:44:01.450Z,56.79
2023-05-14T00:46:28.902Z,57.12
2023-05-14T00:48:57.673Z,57.01
2023-05-14T00:51:25.150Z,57.27
2023-05-14T00:53:52.900Z,57.59
2023-05-14T00:56:20.860Z,57.47
2023-05-14T00:58:48.545Z,57.31
2023-05-14T01:01:16.111Z,57.27
2023-05-14T01:03:44.064Z,57.09
2023-05-14T01:06:39.613Z,57.05
2023-05-14T01:09:25.186Z,57.19
2023-05-14T01:12:16.342Z,57.34
2023-05-14T01:15:06.509Z,57.45
2023-05-14T01:17:38.595Z,57.23
2023-05-14T01:20:06.909Z,57.23
2023-05-14T01:22:34.404Z,57.53
2023-05-14T01:25:01.531Z,57.88
2023-05-14T01:27:31.244Z,57.95
2023-05-14T01:30:18.974Z,58.04
2023-05-14T01:32:51.273Z,57.66
2023-05-14T01:35:22.250Z,57.73
2023-05-14T01:37:50.503Z,57.97
2023-05-14T01:40:19.378Z,58.07
2023-05-14T01:42:47.372Z,58.00
2023-05-14T01:45:15.965Z,58.14
2023-05-14T01:47:43.158Z,58.06
2023-05-14T01:50:10.644Z,58.18
2023-05-14T01:52:38.126Z,58.08
2023-05-14T01:55:05.848Z,58.25
2023-05-14T01:57:33.020Z,58.32
2023-05-14T02:00:01.771Z,58.40
2023-05-14T02:02:29.795Z,58.30
2023-05-14T02:04:56.983Z,58.33
2023-05-14T02:07:24.404Z,58.33
2023-05-14T02:09:52.804Z,58.43
2023-05-14T02:12:20.845Z,58.42
2023-05-14T02:14:48.212Z,58.49
2023-05-14T02:17:17.369Z,58.44
2023-05-14T02:19:44.602Z,58.44
2023-05-14T02:22:12.704Z,58.46
2023-05-14T02:24:40.699Z,58.46
2023-05-14T02:27:08.198Z,58.46
2023-05-14T02:29:35.252Z,58.48
2023-05-14T02:32:02.431Z,58.53
2023-05-14T02:34:29.654Z,58.51
2023-05-14T02:36:56.927Z,58.36
2023-05-14T02:39:24.108Z,58.31
2023-05-14T02:41:51.501Z,58.33
2023-05-14T02:44:18.618Z,58.33
2023-05-14T02:46:46.193Z,58.46
2023-05-14T02:49:13.367Z,58.52
2023-05-14T02:51:40.522Z,58.64
2023-05-14T02:54:07.770Z,58.65
2023-05-14T02:56:35.436Z,58.67
2023-05-14T02:59:02.989Z,58.72
2023-05-14T03:01:30.949Z,58.89
2023-05-14T03:03:58.940Z,58.92
2023-05-14T03:06:26.062Z,59.01
2023-05-14T03:08:53.156Z,59.14
2023-05-14T03:11:20.619Z,59.13
2023-05-14T03:13:47.799Z,59.34
2023-05-14T03:16:15.451Z,59.47
2023-05-14T03:18:42.942Z,59.47
2023-05-14T03:21:10.165Z,59.44
2023-05-14T03:23:37.258Z,59.18
2023-05-14T03:26:04.643Z,58.99
2023-05-14T03:28:31.738Z,58.89
2023-05-14T03:31:00.605Z,59.02
2023-05-14T03:33:28.738Z,59.20
2023-05-14T03:35:56.185Z,59.47
2023-05-14T03:38:23.284Z,59.58
2023-05-14T03:40:50.838Z,59.52
2023-05-14T03:43:18.061Z,59.36
2023-05-14T03:45:45.720Z,59.41
2023-05-14T03:48:13.359Z,59.34
2023-05-14T03:50:40.667Z,59.41
2023-05-14T03:53:07.897Z,59.54
2023-05-14T03:55:36.284Z,59.48
2023-05-14T03:58:06.908Z,59.40
2023-05-14T04:00:34.026Z,59.69
2023-05-14T04:03:02.153Z,59.79
2023-05-14T04:05:29.370Z,59.76
2023-05-14T04:07:57.877Z,59.93
2023-05-14T04:10:25.894Z,59.77
2023-05-14T04:12:55.236Z,59.89
2023-05-14T04:15:24.548Z,59.69
2023-05-14T04:17:53.077Z,59.79
2023-05-14T04:20:20.382Z,59.66
2023-05-14T04:22:47.937Z,59.80
2023-05-14T04:25:15.163Z,59.65
2023-05-14T04:27:42.352Z,59.64
2023-05-14T04:30:10.218Z,59.68
2023-05-14T04:32:37.675Z,59.79
2023-05-14T04:35:05.280Z,59.68
2023-05-14T04:37:32.765Z,59.72
2023-05-14T04:39:59.977Z,59.78
2023-05-14T04:42:27.094Z,59.83
2023-05-14T04:44:54.317Z,59.79
2023-05-14T04:47:21.948Z,59.80
2023-05-14T04:49:49.091Z,59.62
2023-05-14T04:52:16.532Z,59.78
2023-05-14T04:54:43.685Z,59.86
2023-05-14T04:57:10.814Z,59.52
2023-05-14T04:59:38.313Z,59.39
2023-05-14T05:02:05.441Z,59.23
2023-05-14T05:04:32.978Z,59.21
2023-05-14T05:07:00.599Z,59.00
2023-05-14T05:09:27.744Z,58.81
2023-05-14T05:11:55.144Z,58.67
2023-05-14T05:14:22.606Z,58.43
2023-05-14T05:16:50.890Z,58.39
2023-05-14T05:19:19.726Z,58.15
2023-05-14T05:21:49.585Z,58.03
2023-05-14T05:24:16.669Z,58.27
2023-05-14T05:26:43.820Z,58.34
2023-05-14T05:29:11.041Z,58.34
2023-05-14T05:31:38.535Z,58.50
2023-05-14T05:34:05.744Z,58.51
2023-05-14T05:36:34.139Z,58.45
2023-05-14T05:39:01.265Z,58.29
2023-05-14T05:41:29.702Z,58.45
2023-05-14T05:43:56.919Z,58.45
2023-05-14T05:46:24.099Z,58.40
2023-05-14T05:48:52.889Z,58.01
2023-05-14T05:51:20.203Z,58.18
2023-05-14T05:53:47.320Z,58.20
2023-05-14T05:56:14.842Z,58.34
2023-05-14T05:58:41.960Z,58.29
2023-05-14T06:01:09.076Z,58.34
2023-05-14T06:03:36.616Z,58.40
2023-05-14T06:06:04.211Z,58.21
2023-05-14T06:08:31.502Z,58.04
2023-05-14T06:10:58.812Z,57.77
2023-05-14T06:13:25.976Z,57.82
2023-05-14T06:15:53.124Z,57.66
2023-05-14T06:18:20.898Z,57.85
2023-05-14T06:20:48.259Z,57.57
2023-05-14T06:23:15.387Z,57.34
2023-05-14T06:25:42.663Z,57.44
2023-05-14T06:28:09.862Z,57.30
2023-05-14T06:30:37.099Z,57.44
2023-05-14T06:33:04.547Z,56.97
2023-05-14T06:35:32.360Z,56.93
2023-05-14T06:37:59.556Z,56.93
2023-05-14T06:40:26.797Z,56.79
2023-05-14T06:42:54.271Z,56.71
2023-05-14T06:45:21.398Z,56.56
2023-05-14T06:47:48.587Z,56.68
2023-05-14T06:50:16.038Z,56.48
2023-05-14T06:52:44.520Z,56.55
2023-05-14T06:55:11.639Z,56.58
2023-05-14T06:57:40.688Z,56.63
2023-05-14T07:00:08.729Z,56.64
2023-05-14T07:02:36.022Z,56.59
2023-05-14T07:05:03.758Z,56.48
2023-05-14T07:07:31.145Z,56.66
2023-05-14T07:09:58.294Z,56.56
2023-05-14T07:12:25.842Z,56.68
2023-05-14T07:14:53.119Z,57.05
2023-05-14T07:17:20.352Z,56.79
2023-05-14T07:19:47.852Z,56.07
2023-05-14T07:22:15.295Z,55.74
2023-05-14T07:24:43.082Z,55.15
2023-05-14T07:27:12.100Z,54.42
2023-05-14T07:29:39.177Z,54.61
2023-05-14T07:32:06.279Z,54.20
2023-05-14T07:34:33.865Z,53.44
2023-05-14T07:37:01.429Z,52.69
2023-05-14T07:39:28.491Z,53.95
2023-05-14T07:41:55.983Z,53.86
2023-05-14T07:44:23.432Z,53.27
2023-05-14T07:46:50.549Z,53.19
2023-05-14T07:49:18.106Z,53.04
2023-05-14T07:51:45.211Z,52.95
2023-05-14T07:54:12.808Z,52.87
2023-05-14T07:56:40.037Z,51.72
2023-05-14T07:59:07.156Z,50.98
2023-05-14T08:01:34.312Z,49.67
2023-05-14T08:04:04.580Z,49.27
2023-05-14T08:06:32.022Z,48.86
2023-05-14T08:08:59.860Z,48.33
2023-05-14T08:11:27.024Z,48.67
2023-05-14T08:13:54.139Z,47.54
2023-05-14T08:16:21.684Z,46.72
2023-05-14T08:18:49.016Z,46.66
2023-05-14T08:21:17.648Z,45.96
2023-05-14T08:23:45.465Z,46.18
2023-05-14T08:26:13.054Z,45.87
2023-05-14T08:28:40.269Z,43.97
2023-05-14T08:31:08.136Z,44.64
2023-05-14T08:33:35.683Z,42.39
2023-05-14T08:36:03.508Z,42.74
2023-05-14T08:38:31.079Z,42.87
2023-05-14T08:40:59.389Z,42.51
2023-05-14T08:43:32.970Z,42.96
2023-05-14T08:46:01.594Z,42.78
2023-05-14T08:48:33.150Z,42.37
2023-05-14T08:51:01.039Z,42.07
2023-05-14T08:53:28.644Z,41.99
2023-05-14T08:55:56.110Z,41.93
2023-05-14T08:58:26.266Z,41.55
2023-05-14T09:00:53.351Z,41.63
2023-05-14T09:03:22.733Z,41.67
2023-05-14T09:05:51.764Z,41.61
2023-05-14T09:08:19.725Z,41.45
2023-05-14T09:10:47.159Z,41.62
2023-05-14T09:13:14.729Z,41.79
2023-05-14T09:15:41.959Z,41.85
2023-05-14T09:18:09.862Z,41.50
2023-05-14T09:20:38.861Z,41.71
2023-05-14T09:23:06.062Z,41.96
2023-05-14T09:25:33.787Z,41.79
2023-05-14T09:28:07.368Z,41.73
2023-05-14T09:30:36.555Z,41.89
2023-05-14T09:33:09.873Z,42.09
2023-05-14T09:35:39.897Z,42.14
2023-05-14T09:38:12.974Z,42.07
2023-05-14T09:40:40.296Z,42.12
2023-05-14T09:43:09.009Z,42.08
2023-05-14T09:45:36.477Z,41.86
2023-05-14T09:48:04.029Z,41.57
2023-05-14T09:50:41.302Z,41.64
2023-05-14T09:53:09.298Z,41.47
2023-05-14T09:55:38.154Z,41.23
2023-05-14T09:58:05.849Z,41.35
2023-05-14T10:00:34.479Z,41.16
2023-05-14T10:03:06.494Z,40.96
2023-05-14T10:05:36.338Z,40.99
2023-05-14T10:08:13.019Z,40.65
2023-05-14T10:10:40.687Z,40.55
2023-05-14T10:13:14.438Z,40.47
2023-05-14T10:15:59.951Z,40.04
2023-05-14T10:18:31.153Z,39.91
2023-05-14T10:21:06.246Z,39.91
2023-05-14T10:23:37.690Z,39.85
2023-05-14T10:26:06.230Z,39.73
2023-05-14T10:28:34.376Z,39.45
2023-05-14T10:31:03.446Z,39.52
2023-05-14T10:33:45.543Z,39.22
2023-05-14T10:36:12.736Z,39.21
2023-05-14T10:38:40.277Z,38.80
2023-05-14T10:41:21.172Z,38.91
2023-05-14T10:43:49.791Z,39.16
2023-05-14T10:46:17.589Z,39.08
2023-05-14T10:48:45.027Z,38.76
2023-05-14T10:51:12.543Z,38.62
2023-05-14T10:53:42.409Z,38.86
2023-05-14T10:56:13.400Z,38.97
2023-05-14T10:58:48.351Z,38.96
2023-05-14T11:01:15.487Z,38.81
2023-05-14T11:03:45.529Z,38.94
2023-05-14T11:06:15.568Z,39.05
2023-05-14T11:08:44.106Z,38.75
2023-05-14T11:11:12.196Z,38.92
2023-05-14T11:13:41.058Z,39.03
2023-05-14T11:18:41.487Z,39.12
2023-05-14T11:21:08.731Z,39.08
2023-05-14T11:23:36.031Z,38.98
2023-05-14T11:26:03.527Z,38.95
2023-05-14T11:28:31.503Z,38.74
2023-05-14T11:30:58.777Z,38.95
2023-05-14T11:33:27.487Z,38.88
2023-05-14T11:35:54.589Z,38.85
2023-05-14T11:38:22.236Z,38.98
2023-05-14T11:40:53.655Z,38.91
2023-05-14T11:43:23.310Z,38.79
2023-05-14T11:45:52.149Z,38.70
2023-05-14T11:48:20.026Z,38.50
2023-05-14T11:50:52.438Z,38.46
2023-05-14T11:53:24.925Z,38.59
2023-05-14T11:55:54.140Z,38.70
2023-05-14T11:58:21.783Z,38.56
2023-05-14T12:00:55.248Z,38.34
2023-05-14T12:03:25.868Z,38.21
2023-05-14T12:05:56.999Z,38.17
2023-05-14T12:08:31.201Z,38.44
2023-05-14T12:11:00.202Z,38.29
2023-05-14T12:13:29.753Z,38.41
2023-05-14T12:16:00.293Z,38.51
2023-05-14T12:18:30.584Z,38.39
2023-05-14T12:21:05.512Z,38.21
2023-05-14T12:23:32.998Z,38.27
2023-05-14T12:26:08.236Z,38.36
2023-05-14T12:28:42.788Z,38.47
2023-05-14T12:31:10.456Z,38.42
2023-05-14T12:33:37.586Z,38.42
2023-05-14T12:36:20.737Z,38.26
2023-05-14T12:38:50.593Z,38.30
2023-05-14T12:41:18.009Z,38.23
2023-05-14T12:43:49.273Z,38.03
2023-05-14T12:46:16.921Z,38.02
2023-05-14T12:48:44.056Z,38.10
2023-05-14T12:51:11.289Z,37.80
2023-05-14T12:53:40.884Z,37.85
2023-05-14T12:56:08.462Z,37.97
2023-05-14T12:58:35.678Z,37.99
2023-05-14T13:01:03.267Z,37.91
2023-05-14T13:03:31.247Z,37.98
2023-05-14T13:06:00.159Z,37.93
2023-05-14T13:08:27.884Z,37.58
2023-05-14T13:10:55.782Z,37.74
2023-05-14T13:13:23.464Z,37.83
2023-05-14T13:15:52.554Z,37.57
2023-05-14T13:18:20.251Z,37.49
2023-05-14T13:20:47.520Z,37.37
2023-05-14T13:23:15.256Z,37.43
2023-05-14T13:25:42.475Z,37.33
2023-05-14T13:28:09.693Z,37.39
2023-05-14T13:30:37.938Z,37.49
2023-05-14T13:33:05.690Z,37.35
2023-05-14T13:35:34.223Z,37.35
2023-05-14T13:38:01.526Z,37.27
2023-05-14T13:40:28.636Z,37.25
2023-05-14T13:42:56.035Z,37.27
2023-05-14T13:45:23.302Z,37.33
2023-05-14T13:47:51.617Z,37.25
2023-05-14T13:50:19.348Z,37.22
2023-05-14T13:52:46.436Z,37.18
2023-05-14T13:55:13.732Z,37.15
2023-05-14T13:57:42.786Z,37.10
2023-05-14T14:00:11.376Z,37.23
2023-05-14T14:02:38.472Z,37.12
2023-05-14T14:05:06.211Z,37.24
2023-05-14T14:07:33.775Z,37.23
2023-05-14T14:10:01.916Z,37.14
2023-05-14T14:12:29.239Z,37.23
2023-05-14T14:14:56.833Z,37.29
2023-05-14T14:17:23.924Z,37.27
2023-05-14T14:19:51.314Z,37.38
2023-05-14T14:22:18.719Z,37.43
2023-05-14T14:24:46.993Z,37.35
2023-05-14T14:27:14.137Z,37.35
2023-05-14T14:29:41.469Z,37.43
2023-05-14T14:32:08.839Z,37.30
2023-05-14T14:34:36.194Z,37.33
2023-05-14T14:37:03.791Z,37.42
2023-05-14T14:39:31.246Z,37.44
2023-05-14T14:41:58.321Z,37.27
2023-05-14T14:44:25.520Z,37.33
2023-05-14T14:46:52.974Z,37.41
2023-05-14T14:49:20.306Z,37.52
2023-05-14T14:51:47.481Z,37.52
2023-05-14T14:54:15.097Z,37.48
2023-05-14T14:56:43.019Z,37.36
2023-05-14T14:59:10.217Z,37.47
2023-05-14T15:01:39.698Z,37.66
2023-05-14T15:04:07.398Z,37.48
2023-05-14T15:06:34.702Z,37.42
2023-05-14T15:09:03.100Z,37.49
2023-05-14T15:11:30.612Z,37.42
2023-05-14T15:13:58.107Z,37.52
2023-05-14T15:16:29.703Z,37.61
2023-05-14T15:18:57.214Z,37.67
2023-05-14T15:21:24.749Z,37.62
2023-05-14T15:23:51.833Z,37.60
2023-05-14T15:26:19.252Z,37.69
2023-05-14T15:28:46.638Z,37.85
2023-05-14T15:31:13.802Z,37.96
2023-05-14T15:33:41.737Z,38.04
2023-05-14T15:36:09.407Z,38.26
2023-05-14T15:38:36.631Z,38.65
2023-05-14T15:41:03.772Z,38.67
2023-05-14T15:43:31.202Z,38.71
2023-05-14T15:45:58.777Z,38.93
2023-05-14T15:48:25.944Z,39.18
2023-05-14T15:50:53.295Z,39.42
2023-05-14T15:53:21.087Z,39.48
2023-05-14T15:55:48.478Z,39.70
2023-05-14T15:58:15.747Z,39.89
2023-05-14T16:00:43.305Z,40.01
2023-05-14T16:03:19.596Z,40.55
2023-05-14T16:06:12.794Z,40.68
2023-05-14T16:08:40.199Z,40.83
2023-05-14T16:11:07.620Z,40.96
2023-05-14T16:13:37.321Z,41.01
2023-05-14T16:16:12.129Z,41.14
2023-05-14T16:18:55.518Z,41.24
2023-05-14T16:21:22.642Z,41.39
2023-05-14T16:23:50.232Z,41.43
2023-05-14T16:26:17.645Z,41.51
2023-05-14T16:28:44.709Z,41.62
2023-05-14T16:31:12.021Z,41.82
2023-05-14T16:33:39.534Z,41.89
2023-05-14T16:36:07.271Z,42.01
2023-05-14T16:38:35.534Z,42.07
2023-05-14T16:41:06.718Z,42.33
2023-05-14T16:43:37.405Z,42.49
2023-05-14T16:46:05.793Z,42.36
2023-05-14T16:48:33.291Z,42.54
2023-05-14T16:51:00.458Z,42.62
2023-05-14T16:53:27.630Z,42.74
2023-05-14T16:55:55.296Z,42.86
2023-05-14T16:58:22.703Z,43.14
2023-05-14T17:00:49.836Z,43.29
2023-05-14T17:03:34.984Z,43.44
2023-05-14T17:06:18.441Z,43.53
2023-05-14T17:09:14.278Z,43.75
2023-05-14T17:12:03.868Z,43.81
2023-05-14T17:14:49.622Z,44.05
2023-05-14T17:17:33.784Z,44.19
2023-05-14T17:20:23.905Z,44.16
2023-05-14T17:23:06.367Z,44.18
2023-05-14T17:25:56.535Z,44.31
2023-05-14T17:28:39.040Z,44.43
2023-05-14T17:31:26.554Z,44.52
2023-05-14T17:34:09.722Z,44.83
2023-05-14T17:37:00.523Z,45.03
2023-05-14T17:39:46.335Z,45.03
2023-05-14T17:42:29.127Z,45.15
2023-05-14T17:45:12.613Z,45.15
2023-05-14T17:47:59.339Z,45.34
2023-05-14T17:50:43.326Z,45.39
2023-05-14T17:53:26.939Z,45.59
2023-05-14T17:56:01.121Z,45.59
2023-05-14T17:58:29.262Z,45.83
2023-05-14T18:00:56.731Z,45.87
2023-05-14T18:03:24.183Z,45.95
2023-05-14T18:05:51.945Z,46.02
2023-05-14T18:08:19.562Z,46.31
2023-05-14T18:10:46.794Z,46.41
2023-05-14T18:13:13.954Z,46.60
2023-05-14T18:15:41.460Z,46.56
2023-05-14T18:18:08.957Z,46.74
2023-05-14T18:20:36.224Z,46.83
2023-05-14T18:23:04.689Z,46.87
2023-05-14T18:25:32.148Z,47.01
2023-05-14T18:27:59.731Z,46.94
2023-05-14T18:30:27.665Z,47.01
2023-05-14T18:32:54.887Z,47.28
2023-05-14T18:35:22.184Z,47.24
2023-05-14T18:37:50.018Z,47.13
2023-05-14T18:40:18.717Z,47.28
2023-05-14T18:42:46.862Z,47.42
2023-05-14T18:45:14.183Z,47.54
2023-05-14T18:47:41.347Z,47.64
2023-05-14T18:50:08.824Z,47.74
2023-05-14T18:52:36.399Z,47.90
2023-05-14T18:55:03.948Z,47.92
2023-05-14T18:57:34.466Z,48.08
2023-05-14T19:00:03.434Z,48.20
2023-05-14T19:02:31.965Z,48.17
2023-05-14T19:05:00.149Z,48.32
2023-05-14T19:07:27.838Z,48.38
2023-05-14T19:09:55.033Z,48.52
2023-05-14T19:12:22.269Z,48.70
2023-05-14T19:14:49.724Z,48.62
2023-05-14T19:17:18.565Z,48.72
2023-05-14T19:19:47.739Z,48.88
2023-05-14T19:22:15.338Z,48.89
2023-05-14T19:24:42.543Z,49.00
2023-05-14T19:27:09.948Z,49.08
2023-05-14T19:29:37.534Z,49.22
2023-05-14T19:32:05.677Z,49.40
2023-05-14T19:34:33.354Z,49.46
2023-05-14T19:37:04.389Z,49.56
2023-05-14T19:39:32.009Z,49.67
2023-05-14T19:41:59.820Z,49.64
2023-05-14T19:44:27.272Z,49.75
2023-05-14T19:46:54.649Z,49.89
2023-05-14T19:49:22.136Z,49.95
2023-05-14T19:51:50.804Z,50.16
2023-05-14T19:54:17.958Z,50.31
2023-05-14T19:56:45.418Z,50.39
2023-05-14T19:59:12.486Z,50.19
2023-05-14T20:01:40.027Z,50.33
2023-05-14T20:04:08.203Z,50.51
2023-05-14T20:06:36.527Z,50.91
2023-05-14T20:09:05.481Z,51.23
2023-05-14T20:11:32.984Z,51.45
2023-05-14T20:14:00.502Z,51.47
2023-05-14T20:16:28.172Z,51.40
2023-05-14T20:18:55.526Z,51.61
2023-05-14T20:21:23.372Z,51.68
2023-05-14T20:23:50.581Z,51.85
2023-05-14T20:26:17.652Z,52.04
2023-05-14T20:28:46.189Z,51.87
2023-05-14T20:31:13.589Z,51.95
2023-05-14T20:33:40.766Z,52.33
2023-05-14T20:36:08.477Z,52.52
2023-05-14T20:38:36.844Z,52.41
2023-05-14T20:41:04.205Z,52.61
2023-05-14T20:43:31.958Z,52.70
2023-05-14T20:46:00.273Z,52.88
2023-05-14T20:48:27.555Z,53.01
2023-05-14T20:50:54.785Z,53.05
2023-05-14T20:53:22.506Z,52.76
2023-05-14T20:55:49.727Z,52.83
2023-05-14T20:58:17.209Z,52.87
2023-05-14T21:00:44.833Z,52.88
2023-05-14T21:03:12.603Z,53.10
2023-05-14T21:05:41.658Z,53.22
2023-05-14T21:08:09.394Z,53.44
2023-05-14T21:10:36.589Z,53.38
2023-05-14T21:13:03.787Z,53.35
2023-05-14T21:15:31.206Z,53.42
2023-05-14T21:17:58.560Z,53.42
2023-05-14T21:20:28.824Z,53.41
2023-05-14T21:22:56.272Z,53.62
2023-05-14T21:25:23.723Z,53.86
2023-05-14T21:27:51.442Z,53.90
2023-05-14T21:30:20.301Z,54.24
2023-05-14T21:32:50.445Z,54.48
2023-05-14T21:35:17.679Z,54.60
2023-05-14T21:37:45.341Z,54.66
2023-05-14T21:40:12.742Z,54.56
2023-05-14T21:42:40.426Z,54.49
2023-05-14T21:45:08.233Z,54.49
2023-05-14T21:47:36.474Z,54.95
2023-05-14T21:50:05.378Z,55.18
2023-05-14T21:52:33.251Z,55.35
2023-05-14T21:55:00.427Z,55.10
2023-05-14T21:57:28.642Z,55.30
2023-05-14T21:59:57.742Z,55.47
2023-05-14T22:02:25.036Z,55.62
2023-05-14T22:04:52.291Z,55.70
2023-05-14T22:07:19.853Z,55.74
2023-05-14T22:09:47.018Z,55.80
2023-05-14T22:12:14.254Z,56.22
2023-05-14T22:14:41.798Z,56.22
2023-05-14T22:17:09.379Z,56.24
2023-05-14T22:19:36.549Z,56.55
2023-05-14T22:22:04.213Z,56.75
2023-05-14T22:24:31.398Z,56.69
2023-05-14T22:26:58.652Z,56.90
2023-05-14T22:29:26.219Z,57.04
2023-05-14T22:31:53.541Z,56.82
2023-05-14T22:34:21.018Z,57.04
2023-05-14T22:36:48.493Z,57.27
2023-05-14T22:39:15.748Z,57.31
2023-05-14T22:41:42.927Z,57.11
2023-05-14T22:44:10.434Z,57.41
2023-05-14T22:46:37.956Z,57.54
2023-05-14T22:49:05.662Z,57.67
2023-05-14T22:51:32.839Z,57.42
2023-05-14T22:54:00.018Z,57.61
2023-05-14T22:56:27.881Z,57.63
2023-05-14T22:58:55.701Z,57.77
2023-05-14T23:01:22.954Z,58.17
2023-05-14T23:03:50.674Z,58.39
2023-05-14T23:06:18.025Z,58.58
2023-05-14T23:08:46.020Z,58.76
2023-05-14T23:11:14.016Z,58.82
2023-05-14T23:13:41.194Z,58.58
2023-05-14T23:16:08.375Z,58.54
2023-05-14T23:18:35.853Z,58.26
2023-05-14T23:21:03.592Z,58.72
2023-05-14T23:23:30.886Z,58.74
2023-05-14T23:25:58.113Z,58.75
2023-05-14T23:28:26.016Z,58.94
2023-05-14T23:30:53.178Z,58.99
2023-05-14T23:33:20.307Z,59.15
2023-05-14T23:35:48.384Z,59.22
2023-05-14T23:38:16.436Z,59.40
2023-05-14T23:40:43.577Z,59.81
2023-05-14T23:43:10.736Z,59.85
2023-05-14T23:45:39.049Z,59.75
2023-05-14T23:48:06.268Z,59.86
2023-05-14T23:50:33.453Z,59.95
2023-05-14T23:53:00.910Z,59.88
2023-05-14T23:55:28.429Z,60.13
2023-05-14T23:57:55.592Z,60.16
